sensor_id;sensor_type;location;lat;lon;timestamp;pressure;altitude;pressure_sealevel;temperature;humidity
70900;BME280;67902;52.154;5.430;2024-02-26T00:00:15;100122.00;;;5.21;100.00
70900;BME280;67902;52.154;5.430;2024-02-26T00:02:42;100118.94;;;5.18;100.00
70900;BME280;67902;52.154;5.430;2024-02-26T00:05:08;100122.66;;;5.17;100.00
70900;BME280;67902;52.154;5.430;2024-02-26T00:07:35;100125.22;;;5.12;100.00
70900;BME280;67902;52.154;5.430;2024-02-26T00:10:02;100130.22;;;5.08;100.00
70900;BME280;67902;52.154;5.430;2024-02-26T00:12:28;100122.47;;;5.00;100.00
70900;BME280;67902;52.154;5.430;2024-02-26T00:14:55;100129.34;;;4.96;100.00
70900;BME280;67902;52.154;5.430;2024-02-26T00:17:24;100127.94;;;4.94;100.00
70900;BME280;67902;52.154;5.430;2024-02-26T00:19:51;100131.66;;;4.93;100.00
70900;BME280;67902;52.154;5.430;2024-02-26T00:22:17;100136.19;;;4.92;100.00
70900;BME280;67902;52.154;5.430;2024-02-26T00:24:44;100141.78;;;4.91;100.00
70900;BME280;67902;52.154;5.430;2024-02-26T00:27:11;100141.03;;;4.84;100.00
70900;BME280;67902;52.154;5.430;2024-02-26T00:29:37;100145.38;;;4.85;100.00
70900;BME280;67902;52.154;5.430;2024-02-26T00:32:04;100134.63;;;4.85;100.00
70900;BME280;67902;52.154;5.430;2024-02-26T00:34:31;100141.28;;;4.82;100.00
70900;BME280;67902;52.154;5.430;2024-02-26T00:36:57;100136.34;;;4.79;100.00
70900;BME280;67902;52.154;5.430;2024-02-26T00:39:24;100137.84;;;4.75;100.00
70900;BME280;67902;52.154;5.430;2024-02-26T00:41:50;100134.31;;;4.75;100.00
70900;BME280;67902;52.154;5.430;2024-02-26T00:44:18;100145.50;;;4.72;100.00
70900;BME280;67902;52.154;5.430;2024-02-26T00:46:44;100133.59;;;4.67;100.00
70900;BME280;67902;52.154;5.430;2024-02-26T00:49:11;100146.41;;;4.65;100.00
70900;BME280;67902;52.154;5.430;2024-02-26T00:51:37;100147.69;;;4.63;100.00
70900;BME280;67902;52.154;5.430;2024-02-26T00:54:04;100148.47;;;4.63;100.00
70900;BME280;67902;52.154;5.430;2024-02-26T00:56:31;100148.91;;;4.60;100.00
70900;BME280;67902;52.154;5.430;2024-02-26T00:58:58;100148.91;;;4.60;100.00
70900;BME280;67902;52.154;5.430;2024-02-26T01:01:24;100148.31;;;4.58;100.00
70900;BME280;67902;52.154;5.430;2024-02-26T01:03:51;100144.63;;;4.59;100.00
70900;BME280;67902;52.154;5.430;2024-02-26T01:06:18;100148.56;;;4.57;100.00
70900;BME280;67902;52.154;5.430;2024-02-26T01:08:44;100143.78;;;4.59;100.00
70900;BME280;67902;52.154;5.430;2024-02-26T01:11:11;100151.00;;;4.58;100.00
70900;BME280;67902;52.154;5.430;2024-02-26T01:13:37;100142.97;;;4.58;100.00
70900;BME280;67902;52.154;5.430;2024-02-26T01:16:04;100142.38;;;4.56;100.00
70900;BME280;67902;52.154;5.430;2024-02-26T01:18:31;100143.41;;;4.55;100.00
70900;BME280;67902;52.154;5.430;2024-02-26T01:20:57;100139.91;;;4.55;100.00
70900;BME280;67902;52.154;5.430;2024-02-26T01:23:24;100138.03;;;4.55;100.00
70900;BME280;67902;52.154;5.430;2024-02-26T01:25:50;100131.66;;;4.56;100.00
70900;BME280;67902;52.154;5.430;2024-02-26T01:28:17;100146.72;;;4.57;100.00
70900;BME280;67902;52.154;5.430;2024-02-26T01:30:44;100141.94;;;4.59;100.00
70900;BME280;67902;52.154;5.430;2024-02-26T01:33:10;100131.41;;;4.58;100.00
70900;BME280;67902;52.154;5.430;2024-02-26T01:35:37;100134.91;;;4.58;100.00
70900;BME280;67902;52.154;5.430;2024-02-26T01:38:04;100133.88;;;4.59;100.00
70900;BME280;67902;52.154;5.430;2024-02-26T01:40:30;100130.38;;;4.59;100.00
70900;BME280;67902;52.154;5.430;2024-02-26T01:42:57;100126.88;;;4.58;100.00
70900;BME280;67902;52.154;5.430;2024-02-26T01:45:23;100125.84;;;4.59;100.00
70900;BME280;67902;52.154;5.430;2024-02-26T01:47:54;100124.78;;;4.60;100.00
70900;BME280;67902;52.154;5.430;2024-02-26T01:50:22;100123.56;;;4.63;100.00
70900;BME280;67902;52.154;5.430;2024-02-26T01:52:50;100122.28;;;4.65;100.00
70900;BME280;67902;52.154;5.430;2024-02-26T01:55:18;100128.69;;;4.64;100.00
70900;BME280;67902;52.154;5.430;2024-02-26T01:57:48;100134.41;;;4.68;100.00
70900;BME280;67902;52.154;5.430;2024-02-26T02:00:16;100132.09;;;4.72;100.00
70900;BME280;67902;52.154;5.430;2024-02-26T02:02:43;100138.06;;;4.74;100.00
70900;BME280;67902;52.154;5.430;2024-02-26T02:05:14;100137.63;;;4.77;100.00
70900;BME280;67902;52.154;5.430;2024-02-26T02:07:43;100148.34;;;4.77;100.00
70900;BME280;67902;52.154;5.430;2024-02-26T02:10:09;100149.75;;;4.79;100.00
70900;BME280;67902;52.154;5.430;2024-02-26T02:12:36;100151.38;;;4.80;100.00
70900;BME280;67902;52.154;5.430;2024-02-26T02:15:05;100144.16;;;4.81;100.00
70900;BME280;67902;52.154;5.430;2024-02-26T02:17:32;100152.00;;;4.82;100.00
70900;BME280;67902;52.154;5.430;2024-02-26T02:19:59;100152.00;;;4.82;100.00
70900;BME280;67902;52.154;5.430;2024-02-26T02:22:26;100156.53;;;4.82;100.00
70900;BME280;67902;52.154;5.430;2024-02-26T02:24:52;100155.50;;;4.83;100.00
70900;BME280;67902;52.154;5.430;2024-02-26T02:27:19;100157.38;;;4.82;100.00
70900;BME280;67902;52.154;5.430;2024-02-26T02:29:47;100160.88;;;4.83;100.00
70900;BME280;67902;52.154;5.430;2024-02-26T02:32:16;100162.28;;;4.85;100.00
70900;BME280;67902;52.154;5.430;2024-02-26T02:34:43;100164.16;;;4.85;100.00
70900;BME280;67902;52.154;5.430;2024-02-26T02:37:10;100164.16;;;4.85;100.00
70900;BME280;67902;52.154;5.430;2024-02-26T02:39:37;100169.72;;;4.83;100.00
70900;BME280;67902;52.154;5.430;2024-02-26T02:42:03;100162.06;;;4.87;100.00
70900;BME280;67902;52.154;5.430;2024-02-26T02:44:30;100171.13;;;4.86;100.00
70900;BME280;67902;52.154;5.430;2024-02-26T02:46:57;100175.47;;;4.87;100.00
70900;BME280;67902;52.154;5.430;2024-02-26T02:49:23;100181.66;;;4.87;100.00
70900;BME280;67902;52.154;5.430;2024-02-26T02:51:50;100176.28;;;4.87;100.00
70900;BME280;67902;52.154;5.430;2024-02-26T02:54:17;100181.41;;;4.89;100.00
70900;BME280;67902;52.154;5.430;2024-02-26T02:56:43;100180.38;;;4.90;100.00
70900;BME280;67902;52.154;5.430;2024-02-26T02:59:10;100183.31;;;4.88;100.00
70900;BME280;67902;52.154;5.430;2024-02-26T03:01:36;100196.25;;;4.91;100.00
70900;BME280;67902;52.154;5.430;2024-02-26T03:04:03;100202.22;;;4.93;100.00
70900;BME280;67902;52.154;5.430;2024-02-26T03:06:29;100193.94;;;4.95;100.00
70900;BME280;67902;52.154;5.430;2024-02-26T03:08:56;100201.78;;;4.96;100.00
70900;BME280;67902;52.154;5.430;2024-02-26T03:11:22;100210.03;;;4.95;100.00
70900;BME280;67902;52.154;5.430;2024-02-26T03:13:49;100213.78;;;4.94;100.00
70900;BME280;67902;52.154;5.430;2024-02-26T03:16:17;100216.47;;;4.94;100.00
70900;BME280;67902;52.154;5.430;2024-02-26T03:18:43;100220.19;;;4.93;100.00
70900;BME280;67902;52.154;5.430;2024-02-26T03:21:10;100232.75;;;4.92;100.00
70900;BME280;67902;52.154;5.430;2024-02-26T03:23:36;100227.19;;;4.94;100.00
70900;BME280;67902;52.154;5.430;2024-02-26T03:26:03;100229.06;;;4.93;100.00
70900;BME280;67902;52.154;5.430;2024-02-26T03:28:31;100225.53;;;4.93;100.00
70900;BME280;67902;52.154;5.430;2024-02-26T03:31:00;100230.91;;;4.93;100.00
70900;BME280;67902;52.154;5.430;2024-02-26T03:33:27;100232.75;;;4.92;100.00
70900;BME280;67902;52.154;5.430;2024-02-26T03:35:54;100246.19;;;4.92;100.00
70900;BME280;67902;52.154;5.430;2024-02-26T03:38:21;100244.75;;;4.90;100.00
70900;BME280;67902;52.154;5.430;2024-02-26T03:40:47;100249.09;;;4.91;100.00
70900;BME280;67902;52.154;5.430;2024-02-26T03:43:14;100245.78;;;4.89;100.00
70900;BME280;67902;52.154;5.430;2024-02-26T03:45:40;100244.75;;;4.90;100.00
70900;BME280;67902;52.154;5.430;2024-02-26T03:48:07;100258.41;;;4.88;100.00
70900;BME280;67902;52.154;5.430;2024-02-26T03:50:33;100248.91;;;4.86;100.00
70900;BME280;67902;52.154;5.430;2024-02-26T03:53:00;100252.88;;;4.83;100.00
70900;BME280;67902;52.154;5.430;2024-02-26T03:55:27;100248.75;;;4.81;100.00
70900;BME280;67902;52.154;5.430;2024-02-26T03:57:53;100254.13;;;4.81;100.00
70900;BME280;67902;52.154;5.430;2024-02-26T04:00:20;100251.88;;;4.78;100.00
70900;BME280;67902;52.154;5.430;2024-02-26T04:02:48;100251.09;;;4.77;100.00
70900;BME280;67902;52.154;5.430;2024-02-26T04:05:15;100250.84;;;4.79;100.00
70900;BME280;67902;52.154;5.430;2024-02-26T04:07:42;100251.69;;;4.79;100.00
70900;BME280;67902;52.154;5.430;2024-02-26T04:10:09;100244.06;;;4.76;100.00
70900;BME280;67902;52.154;5.430;2024-02-26T04:12:39;100254.38;;;4.79;100.00
70900;BME280;67902;52.154;5.430;2024-02-26T04:15:10;100255.19;;;4.80;100.00
70900;BME280;67902;52.154;5.430;2024-02-26T04:17:37;100254.56;;;4.78;100.00
70900;BME280;67902;52.154;5.430;2024-02-26T04:20:04;100263.00;;;4.81;100.00
70900;BME280;67902;52.154;5.430;2024-02-26T04:22:34;100260.56;;;4.80;100.00
70900;BME280;67902;52.154;5.430;2024-02-26T04:25:00;100261.00;;;4.77;100.00
70900;BME280;67902;52.154;5.430;2024-02-26T04:27:27;100267.19;;;4.77;100.00
70900;BME280;67902;52.154;5.430;2024-02-26T04:29:54;100271.72;;;4.77;100.00
70900;BME280;67902;52.154;5.430;2024-02-26T04:32:20;100273.34;;;4.78;100.00
70900;BME280;67902;52.154;5.430;2024-02-26T04:34:47;100266.56;;;4.75;100.00
70900;BME280;67902;52.154;5.430;2024-02-26T04:37:13;100266.78;;;4.74;100.00
70900;BME280;67902;52.154;5.430;2024-02-26T04:39:40;100273.78;;;4.75;100.00
70900;BME280;67902;52.154;5.430;2024-02-26T04:42:06;100273.19;;;4.73;100.00
70900;BME280;67902;52.154;5.430;2024-02-26T04:44:33;100281.22;;;4.73;100.00
70900;BME280;67902;52.154;5.430;2024-02-26T04:46:59;100277.53;;;4.74;100.00
70900;BME280;67902;52.154;5.430;2024-02-26T04:49:28;100278.94;;;4.76;100.00
70900;BME280;67902;52.154;5.430;2024-02-26T04:51:55;100284.50;;;4.75;100.00
70900;BME280;67902;52.154;5.430;2024-02-26T04:54:21;100290.50;;;4.77;100.00
70900;BME280;67902;52.154;5.430;2024-02-26T04:56:48;100292.13;;;4.78;100.00
70900;BME280;67902;52.154;5.430;2024-02-26T04:59:14;100291.31;;;4.77;100.00
70900;BME280;67902;52.154;5.430;2024-02-26T05:01:41;100302.63;;;4.79;100.00
70900;BME280;67902;52.154;5.430;2024-02-26T05:04:08;100295.41;;;4.80;100.00
70900;BME280;67902;52.154;5.430;2024-02-26T05:06:36;100301.38;;;4.82;100.00
70900;BME280;67902;52.154;5.430;2024-02-26T05:09:03;100304.25;;;4.80;100.00
70900;BME280;67902;52.154;5.430;2024-02-26T05:11:30;100301.38;;;4.82;100.00
70900;BME280;67902;52.154;5.430;2024-02-26T05:13:57;100307.56;;;4.82;100.00
70900;BME280;67902;52.154;5.430;2024-02-26T05:16:23;100304.66;;;4.84;100.00
70900;BME280;67902;52.154;5.430;2024-02-26T05:18:52;100315.38;;;4.84;100.00
70900;BME280;67902;52.154;5.430;2024-02-26T05:21:19;100303.03;;;4.83;100.00
70900;BME280;67902;52.154;5.430;2024-02-26T05:23:46;100299.72;;;4.81;100.00
70900;BME280;67902;52.154;5.430;2024-02-26T05:26:19;100314.78;;;4.82;100.00
70900;BME280;67902;52.154;5.430;2024-02-26T05:28:46;100313.38;;;4.79;100.00
70900;BME280;67902;52.154;5.430;2024-02-26T05:31:13;100318.94;;;4.78;100.00
70900;BME280;67902;52.154;5.430;2024-02-26T05:33:40;100318.94;;;4.78;100.00
70900;BME280;67902;52.154;5.430;2024-02-26T05:36:06;100320.00;;;4.77;100.00
70900;BME280;67902;52.154;5.430;2024-02-26T05:38:33;100323.69;;;4.76;100.00
70900;BME280;67902;52.154;5.430;2024-02-26T05:40:59;100327.41;;;4.75;100.00
70900;BME280;67902;52.154;5.430;2024-02-26T05:43:26;100321.25;;;4.74;100.00
70900;BME280;67902;52.154;5.430;2024-02-26T05:45:53;100325.78;;;4.74;100.00
70900;BME280;67902;52.154;5.430;2024-02-26T05:48:19;100329.50;;;4.73;100.00
70900;BME280;67902;52.154;5.430;2024-02-26T05:50:46;100340.22;;;4.73;100.00
70900;BME280;67902;52.154;5.430;2024-02-26T05:53:13;100329.50;;;4.73;100.00
70900;BME280;67902;52.154;5.430;2024-02-26T05:55:40;100341.88;;;4.74;100.00
70900;BME280;67902;52.154;5.430;2024-02-26T05:58:06;100341.06;;;4.73;100.00
70900;BME280;67902;52.154;5.430;2024-02-26T06:00:33;100345.00;;;4.71;100.00
70900;BME280;67902;52.154;5.430;2024-02-26T06:02:59;100347.69;;;4.71;100.00
70900;BME280;67902;52.154;5.430;2024-02-26T06:05:26;100351.19;;;4.71;100.00
70900;BME280;67902;52.154;5.430;2024-02-26T06:07:53;100349.28;;;4.72;100.00
70900;BME280;67902;52.154;5.430;2024-02-26T06:10:20;100345.81;;;4.71;100.00
70900;BME280;67902;52.154;5.430;2024-02-26T06:12:47;100345.59;;;4.73;100.00
70900;BME280;67902;52.154;5.430;2024-02-26T06:15:14;100347.25;;;4.74;100.00
70900;BME280;67902;52.154;5.430;2024-02-26T06:17:40;100359.59;;;4.75;100.00
70900;BME280;67902;52.154;5.430;2024-02-26T06:20:08;100355.88;;;4.76;100.00
70900;BME280;67902;52.154;5.430;2024-02-26T06:22:41;100358.56;;;4.76;100.00
70900;BME280;67902;52.154;5.430;2024-02-26T06:25:09;100372.56;;;4.78;100.00
70900;BME280;67902;52.154;5.430;2024-02-26T06:27:35;100372.56;;;4.78;100.00
70900;BME280;67902;52.154;5.430;2024-02-26T06:30:02;100376.31;;;4.77;100.00
70900;BME280;67902;52.154;5.430;2024-02-26T06:32:29;100372.81;;;4.76;100.00
70900;BME280;67902;52.154;5.430;2024-02-26T06:34:56;100373.63;;;4.77;100.00
70900;BME280;67902;52.154;5.430;2024-02-26T06:37:23;100376.31;;;4.77;100.00
70900;BME280;67902;52.154;5.430;2024-02-26T06:39:49;100379.00;;;4.77;100.00
70900;BME280;67902;52.154;5.430;2024-02-26T06:42:18;100382.50;;;4.77;100.00
70900;BME280;67902;52.154;5.430;2024-02-26T06:44:44;100388.47;;;4.79;100.00
70900;BME280;67902;52.154;5.430;2024-02-26T06:47:11;100390.09;;;4.80;100.00
70900;BME280;67902;52.154;5.430;2024-02-26T06:49:38;100397.34;;;4.80;100.00
70900;BME280;67902;52.154;5.430;2024-02-26T06:52:05;100403.50;;;4.80;100.00
70900;BME280;67902;52.154;5.430;2024-02-26T06:54:32;100404.13;;;4.82;100.00
70900;BME280;67902;52.154;5.430;2024-02-26T06:56:59;100406.19;;;4.80;100.00
70900;BME280;67902;52.154;5.430;2024-02-26T06:59:26;100410.50;;;4.81;100.00
70900;BME280;67902;52.154;5.430;2024-02-26T07:01:53;100413.00;;;4.83;100.00
70900;BME280;67902;52.154;5.430;2024-02-26T07:04:20;100414.63;;;4.84;100.00
70900;BME280;67902;52.154;5.430;2024-02-26T07:06:47;100411.09;;;4.83;100.00
70900;BME280;67902;52.154;5.430;2024-02-26T07:09:14;100414.41;;;4.85;100.00
70900;BME280;67902;52.154;5.430;2024-02-26T07:11:40;100422.22;;;4.87;100.00
70900;BME280;67902;52.154;5.430;2024-02-26T07:14:09;100420.56;;;4.86;100.00
70900;BME280;67902;52.154;5.430;2024-02-26T07:16:36;100425.75;;;4.87;100.00
70900;BME280;67902;52.154;5.430;2024-02-26T07:19:03;100430.09;;;4.88;100.00
70900;BME280;67902;52.154;5.430;2024-02-26T07:21:30;100432.31;;;4.91;100.00
70900;BME280;67902;52.154;5.430;2024-02-26T07:23:57;100432.94;;;4.93;100.00
70900;BME280;67902;52.154;5.430;2024-02-26T07:26:24;100444.50;;;4.94;100.00
70900;BME280;67902;52.154;5.430;2024-02-26T07:28:52;100445.28;;;4.94;100.00
70900;BME280;67902;52.154;5.430;2024-02-26T07:31:19;100447.75;;;4.96;100.00
70900;BME280;67902;52.154;5.430;2024-02-26T07:33:45;100447.75;;;4.96;100.00
70900;BME280;67902;52.154;5.430;2024-02-26T07:36:12;100446.75;;;4.97;100.00
70900;BME280;67902;52.154;5.430;2024-02-26T07:38:39;100438.69;;;4.97;100.00
70900;BME280;67902;52.154;5.430;2024-02-26T07:41:09;100449.41;;;4.97;100.00
70900;BME280;67902;52.154;5.430;2024-02-26T07:43:36;100451.03;;;4.98;100.00
70900;BME280;67902;52.154;5.430;2024-02-26T07:46:03;100447.34;;;4.99;100.00
70900;BME280;67902;52.154;5.430;2024-02-26T07:48:29;100453.53;;;4.99;100.00
70900;BME280;67902;52.154;5.430;2024-02-26T07:50:56;100459.25;;;5.03;100.00
70900;BME280;67902;52.154;5.430;2024-02-26T07:53:24;100465.44;;;5.03;100.00
70900;BME280;67902;52.154;5.430;2024-02-26T07:55:50;100469.56;;;5.06;100.00
70900;BME280;67902;52.154;5.430;2024-02-26T07:58:17;100471.81;;;5.09;100.00
70900;BME280;67902;52.154;5.430;2024-02-26T08:00:43;100484.19;;;5.10;100.00
70900;BME280;67902;52.154;5.430;2024-02-26T08:03:10;100488.50;;;5.11;100.00
70900;BME280;67902;52.154;5.430;2024-02-26T08:05:37;100488.50;;;5.11;100.00
70900;BME280;67902;52.154;5.430;2024-02-26T08:08:06;100485.41;;;5.14;100.00
70900;BME280;67902;52.154;5.430;2024-02-26T08:10:33;100491.16;;;5.17;100.00
70900;BME280;67902;52.154;5.430;2024-02-26T08:13:00;100491.97;;;5.18;100.00
70900;BME280;67902;52.154;5.430;2024-02-26T08:15:32;100500.03;;;5.18;100.00
70900;BME280;67902;52.154;5.430;2024-02-26T08:18:01;100502.13;;;5.16;100.00
70900;BME280;67902;52.154;5.430;2024-02-26T08:20:30;100507.50;;;5.16;100.00
70900;BME280;67902;52.154;5.430;2024-02-26T08:22:57;100501.06;;;5.17;100.00
70900;BME280;67902;52.154;5.430;2024-02-26T08:25:24;100511.19;;;5.15;100.00
70900;BME280;67902;52.154;5.430;2024-02-26T08:27:51;100499.22;;;5.17;100.00
70900;BME280;67902;52.154;5.430;2024-02-26T08:30:17;100514.47;;;5.17;100.00
70900;BME280;67902;52.154;5.430;2024-02-26T08:32:45;100510.78;;;5.18;100.00
70900;BME280;67902;52.154;5.430;2024-02-26T08:35:16;100512.84;;;5.16;100.00
70900;BME280;67902;52.154;5.430;2024-02-26T08:37:47;100518.22;;;5.16;100.00
70900;BME280;67902;52.154;5.430;2024-02-26T08:40:14;100519.47;;;5.13;100.00
70900;BME280;67902;52.154;5.430;2024-02-26T08:42:41;100521.94;;;5.15;100.00
70900;BME280;67902;52.154;5.430;2024-02-26T08:45:08;100533.50;;;5.15;100.00
70900;BME280;67902;52.154;5.430;2024-02-26T08:47:35;100532.66;;;5.15;100.00
70900;BME280;67902;52.154;5.430;2024-02-26T08:50:03;100539.47;;;5.17;100.00
70900;BME280;67902;52.154;5.430;2024-02-26T08:52:29;100532.66;;;5.15;100.00
70900;BME280;67902;52.154;5.430;2024-02-26T08:54:56;100542.16;;;5.17;100.00
70900;BME280;67902;52.154;5.430;2024-02-26T08:57:23;100541.94;;;5.19;100.00
70900;BME280;67902;52.154;5.430;2024-02-26T08:59:50;100537.59;;;5.18;100.00
70900;BME280;67902;52.154;5.430;2024-02-26T09:02:16;100550.00;;;5.19;100.00
70900;BME280;67902;52.154;5.430;2024-02-26T09:04:43;100558.25;;;5.17;100.00
70900;BME280;67902;52.154;5.430;2024-02-26T09:07:09;100559.50;;;5.15;100.00
70900;BME280;67902;52.154;5.430;2024-02-26T09:09:36;100564.03;;;5.14;100.00
70900;BME280;67902;52.154;5.430;2024-02-26T09:12:03;100556.22;;;5.13;100.00
70900;BME280;67902;52.154;5.430;2024-02-26T09:14:30;100566.97;;;5.13;100.00
70900;BME280;67902;52.154;5.430;2024-02-26T09:16:56;100563.22;;;5.14;100.00
70900;BME280;67902;52.154;5.430;2024-02-26T09:19:24;100570.03;;;5.16;100.00
70900;BME280;67902;52.154;5.430;2024-02-26T09:21:51;100568.16;;;5.17;100.00
70900;BME280;67902;52.154;5.430;2024-02-26T09:24:20;100569.00;;;5.17;100.00
70900;BME280;67902;52.154;5.430;2024-02-26T09:26:46;100577.28;;;5.16;100.00
70900;BME280;67902;52.154;5.430;2024-02-26T09:29:13;100583.47;;;5.16;100.00
70900;BME280;67902;52.154;5.430;2024-02-26T09:31:39;100582.22;;;5.19;100.00
70900;BME280;67902;52.154;5.430;2024-02-26T09:34:07;100589.00;;;5.21;100.00
70900;BME280;67902;52.154;5.430;2024-02-26T09:36:34;100583.84;;;5.20;100.00
70900;BME280;67902;52.154;5.430;2024-02-26T09:39:01;100593.53;;;5.21;100.00
70900;BME280;67902;52.154;5.430;2024-02-26T09:41:28;100595.63;;;5.19;100.00
70900;BME280;67902;52.154;5.430;2024-02-26T09:43:57;100593.97;;;5.18;100.00
70900;BME280;67902;52.154;5.430;2024-02-26T09:46:25;100601.59;;;5.21;100.00
70900;BME280;67902;52.154;5.430;2024-02-26T09:48:51;100606.53;;;5.24;100.00
70900;BME280;67902;52.154;5.430;2024-02-26T09:51:19;100601.56;;;5.28;100.00
70900;BME280;67902;52.154;5.430;2024-02-26T09:53:47;100606.09;;;5.27;100.00
70900;BME280;67902;52.154;5.430;2024-02-26T09:56:17;100605.72;;;5.23;100.00
70900;BME280;67902;52.154;5.430;2024-02-26T09:58:44;100606.94;;;5.28;100.00
70900;BME280;67902;52.154;5.430;2024-02-26T10:01:18;100612.06;;;5.29;100.00
70900;BME280;67902;52.154;5.430;2024-02-26T10:03:49;100622.97;;;5.34;100.00
70900;BME280;67902;52.154;5.430;2024-02-26T10:06:18;100625.03;;;5.39;100.00
70900;BME280;67902;52.154;5.430;2024-02-26T10:08:45;100635.78;;;5.39;100.00
70900;BME280;67902;52.154;5.430;2024-02-26T10:11:13;100627.94;;;5.37;100.00
70900;BME280;67902;52.154;5.430;2024-02-26T10:13:41;100636.16;;;5.42;100.00
70900;BME280;67902;52.154;5.430;2024-02-26T10:16:07;100625.41;;;5.42;100.00
70900;BME280;67902;52.154;5.430;2024-02-26T10:18:50;100638.03;;;5.42;100.00
70900;BME280;67902;52.154;5.430;2024-02-26T10:21:25;100635.34;;;5.42;100.00
70900;BME280;67902;52.154;5.430;2024-02-26T10:23:51;100633.47;;;5.42;100.00
70900;BME280;67902;52.154;5.430;2024-02-26T10:26:19;100649.38;;;5.44;100.00
70900;BME280;67902;52.154;5.430;2024-02-26T10:28:45;100651.84;;;5.45;100.00
70900;BME280;67902;52.154;5.430;2024-02-26T10:31:14;100659.03;;;5.51;100.00
70900;BME280;67902;52.154;5.430;2024-02-26T10:33:42;100655.69;;;5.56;100.00
70900;BME280;67902;52.154;5.430;2024-02-26T10:36:10;100665.63;;;5.55;100.00
70900;BME280;67902;52.154;5.430;2024-02-26T10:38:37;100673.69;;;5.55;100.00
70900;BME280;67902;52.154;5.430;2024-02-26T10:41:06;100676.53;;;5.60;100.00
70900;BME280;67902;52.154;5.430;2024-02-26T10:43:33;100676.13;;;5.63;100.00
70900;BME280;67902;52.154;5.430;2024-02-26T10:45:59;100672.59;;;5.63;100.00
70900;BME280;67902;52.154;5.430;2024-02-26T10:48:28;100675.94;;;5.58;100.00
70900;BME280;67902;52.154;5.430;2024-02-26T10:50:55;100687.69;;;5.64;100.00
70900;BME280;67902;52.154;5.430;2024-02-26T10:53:26;100688.88;;;5.68;100.00
70900;BME280;67902;52.154;5.430;2024-02-26T10:55:59;100697.94;;;5.73;100.00
70900;BME280;67902;52.154;5.430;2024-02-26T10:58:28;100693.41;;;5.74;100.00
70900;BME280;67902;52.154;5.430;2024-02-26T11:00:56;100709.94;;;5.77;100.00
70900;BME280;67902;52.154;5.430;2024-02-26T11:03:24;100707.00;;;5.79;100.00
70900;BME280;67902;52.154;5.430;2024-02-26T11:05:51;100718.16;;;5.82;100.00
70900;BME280;67902;52.154;5.430;2024-02-26T11:08:18;100714.03;;;5.87;100.00
70900;BME280;67902;52.154;5.430;2024-02-26T11:10:50;100714.03;;;5.87;100.00
70900;BME280;67902;52.154;5.430;2024-02-26T11:13:19;100726.22;;;5.82;100.00
70900;BME280;67902;52.154;5.430;2024-02-26T11:15:48;100725.19;;;5.83;100.00
70900;BME280;67902;52.154;5.430;2024-02-26T11:18:15;100729.34;;;5.86;100.00
70900;BME280;67902;52.154;5.430;2024-02-26T11:20:44;100721.03;;;5.88;100.00
70900;BME280;67902;52.154;5.430;2024-02-26T11:23:12;100733.44;;;5.89;100.00
70900;BME280;67902;52.154;5.430;2024-02-26T11:25:38;100733.44;;;5.89;100.00
70900;BME280;67902;52.154;5.430;2024-02-26T11:28:09;100732.38;;;5.90;100.00
70900;BME280;67902;52.154;5.430;2024-02-26T11:30:40;100738.22;;;5.87;100.00
70900;BME280;67902;52.154;5.430;2024-02-26T11:33:09;100743.97;;;5.90;100.00
70900;BME280;67902;52.154;5.430;2024-02-26T11:35:36;100737.16;;;5.88;100.00
70900;BME280;67902;52.154;5.430;2024-02-26T11:38:04;100740.91;;;5.87;100.00
70900;BME280;67902;52.154;5.430;2024-02-26T11:40:33;100753.28;;;5.88;100.00
70900;BME280;67902;52.154;5.430;2024-02-26T11:43:04;100759.06;;;5.84;100.00
70900;BME280;67902;52.154;5.430;2024-02-26T11:48:15;100770.66;;;5.85;100.00
70900;BME280;67902;52.154;5.430;2024-02-26T11:50:45;100761.34;;;5.88;100.00
70900;BME280;67902;52.154;5.430;2024-02-26T11:53:25;100771.50;;;5.86;100.00
70900;BME280;67902;52.154;5.430;2024-02-26T11:58:48;100766.91;;;5.93;100.00
70900;BME280;67902;52.154;5.430;2024-02-26T12:01:47;100773.94;;;5.94;100.00
70900;BME280;67902;52.154;5.430;2024-02-26T12:04:25;100771.63;;;5.97;100.00
70900;BME280;67902;52.154;5.430;2024-02-26T12:06:55;100774.69;;;6.01;100.00
70900;BME280;67902;52.154;5.430;2024-02-26T12:09:37;100784.41;;;6.02;100.00
70900;BME280;67902;52.154;5.430;2024-02-26T12:12:08;100780.31;;;5.99;100.00
70900;BME280;67902;52.154;5.430;2024-02-26T12:14:40;100789.41;;;5.98;100.00
70900;BME280;67902;52.154;5.430;2024-02-26T12:17:19;100796.66;;;5.98;100.00
70900;BME280;67902;52.154;5.430;2024-02-26T12:19:45;100792.66;;;6.07;100.00
70900;BME280;67902;52.154;5.430;2024-02-26T12:22:15;100791.84;;;6.06;100.00
70900;BME280;67902;52.154;5.430;2024-02-26T12:24:45;100795.78;;;6.04;100.00
70900;BME280;67902;52.154;5.430;2024-02-26T12:27:12;100791.84;;;6.06;100.00
70900;BME280;67902;52.154;5.430;2024-02-26T12:29:39;100804.47;;;6.06;100.00
70900;BME280;67902;52.154;5.430;2024-02-26T12:32:06;100812.69;;;6.11;100.00
70900;BME280;67902;52.154;5.430;2024-02-26T12:34:34;100814.38;;;6.05;100.00
70900;BME280;67902;52.154;5.430;2024-02-26T12:37:01;100811.91;;;6.04;100.00
70900;BME280;67902;52.154;5.430;2024-02-26T12:39:28;100810.66;;;6.06;100.00
70900;BME280;67902;52.154;5.430;2024-02-26T12:41:57;100813.72;;;6.10;100.00
70900;BME280;67902;52.154;5.430;2024-02-26T12:44:26;100825.72;;;6.14;100.00
70900;BME280;67902;52.154;5.430;2024-02-26T12:47:03;100832.28;;;6.18;100.00
70900;BME280;67902;52.154;5.430;2024-02-26T12:49:30;100825.88;;;6.19;100.00
70900;BME280;67902;52.154;5.430;2024-02-26T12:51:57;100836.22;;;6.22;100.00
70900;BME280;67902;52.154;5.430;2024-02-26T12:54:29;100835.78;;;6.25;100.00
70900;BME280;67902;52.154;5.430;2024-02-26T12:56:59;100839.50;;;6.24;100.00